Time;durP1;ratioP1;P1;durP2;ratioP2;P2;SDS_P1;SDS_P2;PMS_P1;PMS_P2;Temp;Humidity;BMP_temperature;BMP_pressure;BME280_temperature;BME280_humidity;BME280_pressure;Samples;Min_cycle;Max_cycle;Signal;HPM_P1;HPM_P2
2022/12/12 00:01:29;;;;;;;24.40;12.80;;;2.90;94.90;;;;;;5093752;28;20031;-77
2022/12/12 00:03:54;;;;;;;24.23;12.57;;;2.80;94.90;;;;;;5092364;28;20499;-78
2022/12/12 00:06:21;;;;;;;22.97;12.90;;;2.80;94.90;;;;;;5075422;28;20020;-77
2022/12/12 00:08:47;;;;;;;25.03;13.37;;;3.00;94.90;;;;;;5075496;28;20082;-77
2022/12/12 00:11:13;;;;;;;23.17;12.17;;;2.90;94.90;;;;;;5091650;28;20056;-78
2022/12/12 00:13:39;;;;;;;22.87;12.60;;;2.80;94.80;;;;;;5092211;28;20024;-77
2022/12/12 00:16:06;;;;;;;23.80;11.70;;;3.00;94.80;;;;;;5092074;28;20028;-77
2022/12/12 00:18:33;;;;;;;24.23;12.73;;;2.80;94.80;;;;;;5092083;28;20024;-77
2022/12/12 00:20:58;;;;;;;23.90;12.77;;;2.80;94.80;;;;;;5109008;28;20502;-78
2022/12/12 00:23:25;;;;;;;23.50;12.80;;;2.80;94.80;;;;;;5092094;28;20119;-77
2022/12/12 00:26:03;;;;;;;28.03;13.63;;;2.80;94.70;;;;;;5092360;28;20020;-78
2022/12/12 00:28:29;;;;;;;24.80;12.60;;;2.80;94.70;;;;;;5091643;28;20372;-77
2022/12/12 00:30:55;;;;;;;24.27;12.67;;;2.80;94.60;;;;;;5075187;28;20028;-77
2022/12/12 00:33:21;;;;;;;26.63;12.93;;;2.80;94.60;;;;;;5075307;28;20116;-77
2022/12/12 00:35:54;;;;;;;22.43;12.37;;;2.80;94.60;;;;;;5093220;28;20028;-78
2022/12/12 00:38:22;;;;;;;24.27;12.75;;;2.80;94.60;;;;;;5091969;28;20051;-78
2022/12/12 00:40:48;;;;;;;25.23;12.63;;;2.80;94.60;;;;;;5075075;28;20032;-78
2022/12/12 00:43:14;;;;;;;21.10;11.83;;;2.80;94.60;;;;;;5074849;28;20040;-78
2022/12/12 00:45:40;;;;;;;22.40;12.27;;;2.80;94.60;;;;;;5093167;28;20024;-78
2022/12/12 00:48:07;;;;;;;24.37;13.00;;;2.90;94.50;;;;;;5092019;28;20025;-78
2022/12/12 00:50:34;;;;;;;23.33;11.97;;;2.80;94.50;;;;;;5093177;28;20091;-78
2022/12/12 00:53:00;;;;;;;23.97;12.13;;;2.90;94.50;;;;;;5091736;28;20052;-77
2022/12/12 00:55:26;;;;;;;24.47;12.67;;;2.90;94.50;;;;;;5091976;28;20081;-78
2022/12/12 00:57:51;;;;;;;22.67;11.83;;;2.90;94.50;;;;;;5090990;28;20507;-77
2022/12/12 01:00:18;;;;;;;24.07;13.37;;;2.90;94.40;;;;;;5058476;28;20127;-78
2022/12/12 01:02:44;;;;;;;22.83;11.67;;;2.90;94.40;;;;;;5091671;28;20035;-77
2022/12/12 01:05:10;;;;;;;23.47;13.23;;;2.90;94.40;;;;;;5091799;28;20032;-78
2022/12/12 01:07:36;;;;;;;23.83;12.27;;;2.90;94.30;;;;;;5074916;28;20073;-78
2022/12/12 01:10:03;;;;;;;25.73;12.90;;;2.90;94.30;;;;;;5091661;28;20024;-78
2022/12/12 01:12:29;;;;;;;21.47;12.40;;;2.90;94.30;;;;;;5092522;28;20031;-78
2022/12/12 01:14:55;;;;;;;22.63;12.10;;;2.90;94.30;;;;;;5074838;28;20418;-77
2022/12/12 01:17:21;;;;;;;24.00;12.73;;;2.90;94.30;;;;;;5091631;28;20384;-77
2022/12/12 01:19:46;;;;;;;25.50;12.70;;;2.90;94.30;;;;;;5074679;28;20123;-77
2022/12/12 01:22:12;;;;;;;23.33;12.50;;;2.90;94.20;;;;;;5092233;28;20111;-81
2022/12/12 01:24:38;;;;;;;25.93;13.53;;;2.90;94.20;;;;;;5061827;28;20377;-81
2022/12/12 01:27:03;;;;;;;22.57;12.63;;;2.90;94.20;;;;;;5078461;28;20435;-81
2022/12/12 01:29:29;;;;;;;24.33;12.83;;;2.90;94.20;;;;;;5095554;28;20028;-81
2022/12/12 01:31:54;;;;;;;23.87;11.97;;;2.90;94.20;;;;;;5095574;28;20085;-81
2022/12/12 01:34:20;;;;;;;25.43;13.77;;;2.90;94.10;;;;;;5078608;28;20044;-81
2022/12/12 01:36:46;;;;;;;24.40;13.70;;;2.90;94.10;;;;;;5095267;28;20088;-81
2022/12/12 01:39:11;;;;;;;29.27;14.80;;;2.90;94.20;;;;;;5094971;28;20429;-81
2022/12/12 01:41:37;;;;;;;25.53;13.07;;;2.90;94.10;;;;;;5078225;28;20039;-81
2022/12/12 01:44:24;;;;;;;27.10;13.60;;;2.90;94.10;;;;;;5095022;28;20051;-81
2022/12/12 01:46:49;;;;;;;23.37;11.77;;;2.90;94.00;;;;;;5094807;28;20052;-81
2022/12/12 01:49:23;;;;;;;24.33;13.10;;;2.90;94.00;;;;;;5095141;28;20066;-80
2022/12/12 01:51:55;;;;;;;25.50;12.70;;;2.80;93.90;;;;;;5094672;28;20496;-80
2022/12/12 01:54:29;;;;;;;24.67;12.70;;;2.80;93.80;;;;;;5094902;28;20020;-81
2022/12/12 01:56:59;;;;;;;26.70;14.00;;;2.80;93.80;;;;;;5096061;28;20027;-81
2022/12/12 01:59:27;;;;;;;25.37;13.50;;;2.70;93.70;;;;;;5090077;28;20477;-81
2022/12/12 02:01:53;;;;;;;29.70;15.07;;;2.80;93.70;;;;;;5073701;28;20115;-81
2022/12/12 02:04:23;;;;;;;23.37;12.53;;;2.80;93.70;;;;;;5074622;28;20032;-81
2022/12/12 02:06:50;;;;;;;21.53;12.53;;;2.70;93.70;;;;;;5075175;28;20044;-80
2022/12/12 02:09:18;;;;;;;26.67;13.40;;;2.70;93.70;;;;;;5074541;28;20094;-80
2022/12/12 02:11:47;;;;;;;22.37;12.67;;;2.70;93.70;;;;;;5074415;28;20035;-80
2022/12/12 02:14:17;;;;;;;25.87;13.13;;;2.80;93.80;;;;;;5090348;28;20495;-80
2022/12/12 02:16:58;;;;;;;21.20;12.13;;;2.60;93.70;;;;;;5091021;28;20035;-80
2022/12/12 02:20:08;;;;;;;22.73;12.10;;;2.60;93.70;;;;;;5074194;28;20028;-81
2022/12/12 02:22:46;;;;;;;24.17;12.53;;;2.60;93.80;;;;;;5070488;28;20039;-80
2022/12/12 02:25:43;;;;;;;24.37;12.27;;;2.60;93.80;;;;;;5074023;28;20542;-80
2022/12/12 02:28:34;;;;;;;24.60;13.17;;;2.60;93.80;;;;;;5074037;28;20381;-81
2022/12/12 02:31:12;;;;;;;24.40;12.60;;;2.50;93.80;;;;;;5078861;28;20081;-80
2022/12/12 02:33:40;;;;;;;25.13;12.40;;;2.50;93.90;;;;;;5093936;28;20090;-80
2022/12/12 02:36:37;;;;;;;25.20;12.77;;;2.50;94.00;;;;;;5094101;28;20020;-80
2022/12/12 02:39:15;;;;;;;24.10;11.90;;;2.50;93.90;;;;;;5094082;28;20024;-80
2022/12/12 02:41:46;;;;;;;23.57;12.37;;;2.50;94.00;;;;;;5093955;28;20069;-80
2022/12/12 02:44:29;;;;;;;24.03;12.27;;;2.60;94.10;;;;;;5093958;28;20111;-80
2022/12/12 02:47:16;;;;;;;24.43;12.50;;;2.50;94.00;;;;;;5095045;28;20020;-80
2022/12/12 02:49:48;;;;;;;23.67;12.13;;;2.50;94.00;;;;;;5095221;28;20020;-80
2022/12/12 02:52:16;;;;;;;23.17;11.97;;;2.50;94.00;;;;;;5093548;28;20068;-81
2022/12/12 02:54:42;;;;;;;23.33;12.07;;;2.50;94.00;;;;;;5093721;28;20119;-80
2022/12/12 02:57:18;;;;;;;24.47;12.83;;;2.50;94.00;;;;;;5093611;28;20027;-80
2022/12/12 02:59:56;;;;;;;25.97;12.27;;;2.40;94.00;;;;;;5094995;28;20031;-81
2022/12/12 03:02:48;;;;;;;23.50;12.63;;;2.50;94.00;;;;;;5093490;28;20024;-80
2022/12/12 03:08:40;;;;;;;23.13;11.37;;;2.40;93.80;;;;;;5094905;28;20086;-80
2022/12/12 03:11:13;;;;;;;22.37;11.53;;;2.30;93.70;;;;;;5093571;28;20148;-80
2022/12/12 03:14:01;;;;;;;26.98;13.50;;;2.30;93.60;;;;;;5093359;28;20119;-80
2022/12/12 03:16:33;;;;;;;23.53;11.73;;;2.20;93.60;;;;;;5093533;28;20027;-80
2022/12/12 03:19:08;;;;;;;24.87;11.73;;;2.10;93.50;;;;;;5093235;28;20110;-80
2022/12/12 03:21:59;;;;;;;24.90;12.87;;;2.10;93.60;;;;;;5093202;28;20376;-80
2022/12/12 03:24:30;;;;;;;21.33;11.00;;;2.00;93.50;;;;;;5093026;28;20072;-80
2022/12/12 03:26:56;;;;;;;23.20;12.20;;;2.00;93.50;;;;;;5093200;28;20016;-81
2022/12/12 03:29:29;;;;;;;24.40;12.07;;;1.90;93.50;;;;;;5093068;28;20410;-80
2022/12/12 03:32:05;;;;;;;24.27;12.50;;;1.80;93.50;;;;;;5092792;28;20105;-80
2022/12/12 03:34:37;;;;;;;23.63;11.67;;;1.80;93.60;;;;;;5092999;28;20031;-80
2022/12/12 03:37:09;;;;;;;23.63;11.90;;;1.70;93.60;;;;;;5092781;28;20035;-80
2022/12/12 03:39:40;;;;;;;23.80;11.83;;;1.70;93.60;;;;;;5092897;28;20024;-81
2022/12/12 03:42:18;;;;;;;26.97;12.00;;;1.50;93.60;;;;;;5093856;28;20020;-80
2022/12/12 03:44:55;;;;;;;25.23;12.47;;;1.50;93.70;;;;;;5073211;28;20162;-80
2022/12/12 03:47:54;;;;;;;26.07;12.87;;;1.50;93.70;;;;;;5089393;28;20105;-80
2022/12/12 03:50:24;;;;;;;24.77;11.90;;;1.40;93.80;;;;;;5060152;28;20028;-80
2022/12/12 03:53:23;;;;;;;23.10;11.73;;;1.30;93.80;;;;;;5092620;28;20408;-81
2022/12/12 03:55:59;;;;;;;26.07;12.53;;;1.30;93.80;;;;;;5093984;28;20060;-81
2022/12/12 03:58:35;;;;;;;24.23;12.43;;;1.20;94.10;;;;;;5093832;28;20032;-81
2022/12/12 04:01:06;;;;;;;24.07;12.10;;;1.20;93.80;;;;;;5092493;28;20024;-81
2022/12/12 04:03:42;;;;;;;26.47;12.83;;;1.10;93.80;;;;;;5092365;28;20024;-81
2022/12/12 04:06:25;;;;;;;29.27;13.13;;;1.10;93.90;;;;;;5092416;28;20165;-81
2022/12/12 04:15:13;;;;;;;17.48;9.13;;;1.00;94.10;;;;;;5093822;28;20061;-81
2022/12/12 04:17:44;;;;;;;28.93;12.77;;;0.90;94.10;;;;;;5091957;28;20081;-81
2022/12/12 04:23:29;;;;;;;25.77;12.03;;;0.90;94.20;;;;;;5093492;28;20031;-81
2022/12/12 04:29:15;;;;;;;25.47;12.80;;;0.80;94.20;;;;;;5073505;28;20123;-80
2022/12/12 04:31:53;;;;;;;24.47;12.07;;;0.90;94.30;;;;;;5072018;28;20054;-80
2022/12/12 04:34:37;;;;;;;24.03;11.13;;;0.70;94.30;;;;;;5073295;28;20055;-80
2022/12/12 04:37:05;;;;;;;29.98;13.10;;;0.60;94.30;;;;;;5071732;28;20027;-81
2022/12/12 04:39:34;;;;;;;27.93;12.60;;;0.60;94.40;;;;;;5073749;28;20024;-80
2022/12/12 04:42:02;;;;;;;26.57;13.27;;;0.60;94.40;;;;;;5093379;28;20384;-80
2022/12/12 04:44:30;;;;;;;28.43;13.00;;;0.50;94.40;;;;;;5091912;28;20028;-80
2022/12/12 04:46:58;;;;;;;25.87;12.80;;;0.50;94.50;;;;;;5093409;28;20020;-81
2022/12/12 04:49:27;;;;;;;28.13;12.67;;;0.50;94.60;;;;;;5075290;28;20027;-80
2022/12/12 04:51:58;;;;;;;26.23;11.90;;;0.40;94.60;;;;;;5091897;28;20094;-80
2022/12/12 04:54:40;;;;;;;26.43;12.80;;;0.40;94.70;;;;;;5093361;28;20112;-80
2022/12/12 04:57:09;;;;;;;28.77;13.23;;;0.40;94.80;;;;;;5092320;28;20020;-80
2022/12/12 04:59:37;;;;;;;28.80;12.63;;;0.30;94.80;;;;;;5096472;28;20119;-80
2022/12/12 05:02:35;;;;;;;26.43;12.60;;;0.30;94.80;;;;;;5096731;28;20048;-80
2022/12/12 05:05:14;;;;;;;24.43;12.07;;;0.30;94.90;;;;;;5098848;28;20064;-81
2022/12/12 05:07:43;;;;;;;27.80;12.27;;;0.20;94.90;;;;;;5098114;28;20020;-80
2022/12/12 05:10:15;;;;;;;29.00;12.33;;;0.30;95.00;;;;;;5097774;28;20101;-80
2022/12/12 05:12:47;;;;;;;28.50;13.13;;;0.20;95.00;;;;;;5097336;28;20102;-80
2022/12/12 05:15:14;;;;;;;30.73;13.10;;;0.10;95.00;;;;;;5099224;28;20103;-80
2022/12/12 05:17:51;;;;;;;28.67;13.60;;;0.10;95.10;;;;;;5079063;28;20225;-80
2022/12/12 05:20:17;;;;;;;28.87;12.87;;;0.10;95.10;;;;;;5096903;28;20024;-80
2022/12/12 05:22:42;;;;;;;28.43;13.83;;;0.10;95.20;;;;;;5095448;28;20028;-80
2022/12/12 05:25:09;;;;;;;29.07;14.00;;;0.00;95.30;;;;;;5096753;28;20039;-80
2022/12/12 05:27:34;;;;;;;28.83;13.93;;;0.00;95.30;;;;;;5095484;28;20023;-80
2022/12/12 05:30:00;;;;;;;28.43;14.30;;;0.00;95.40;;;;;;5095612;28;20380;-79
2022/12/12 05:32:26;;;;;;;29.67;14.37;;;0.00;95.50;;;;;;5095525;28;20111;-79
2022/12/12 05:34:51;;;;;;;31.23;15.10;;;0.00;95.50;;;;;;5078517;28;20028;-79
2022/12/12 05:37:17;;;;;;;30.13;14.77;;;-0.10;95.60;;;;;;5095500;28;20032;-79
2022/12/12 05:39:42;;;;;;;29.17;13.63;;;-0.10;95.60;;;;;;5094159;28;20107;-79
2022/12/12 05:42:08;;;;;;;34.10;15.73;;;-0.10;95.70;;;;;;5070238;28;20028;-79
2022/12/12 05:44:34;;;;;;;30.70;15.00;;;-0.10;95.70;;;;;;5095271;28;20035;-80
2022/12/12 05:46:59;;;;;;;31.07;15.07;;;-0.10;95.70;;;;;;5084382;28;20142;-79
2022/12/12 05:49:25;;;;;;;31.87;14.90;;;-0.10;95.70;;;;;;5087338;28;20416;-79
2022/12/12 05:51:51;;;;;;;31.23;15.07;;;-0.20;95.80;;;;;;5093918;28;20071;-79
2022/12/12 05:54:16;;;;;;;28.60;13.27;;;-0.20;95.80;;;;;;5094356;28;20028;-79
2022/12/12 05:56:42;;;;;;;29.70;14.13;;;-0.20;95.80;;;;;;5090852;28;20059;-79
2022/12/12 05:59:08;;;;;;;34.83;16.27;;;-0.20;95.80;;;;;;5076349;28;20484;-79
2022/12/12 06:01:33;;;;;;;34.73;15.67;;;-0.30;95.90;;;;;;5075556;28;20569;-79
2022/12/12 06:03:59;;;;;;;32.87;15.17;;;-0.20;95.90;;;;;;5078549;28;20024;-79
2022/12/12 06:06:25;;;;;;;33.17;15.50;;;-0.30;95.90;;;;;;5073946;28;20469;-79
2022/12/12 06:08:50;;;;;;;32.03;16.63;;;-0.30;96.00;;;;;;5073160;28;20022;-78
2022/12/12 06:11:16;;;;;;;31.73;13.90;;;-0.30;96.00;;;;;;5075687;28;20028;-79
2022/12/12 06:13:42;;;;;;;32.00;14.20;;;-0.40;96.00;;;;;;5093501;28;20112;-80
2022/12/12 06:16:09;;;;;;;34.23;16.00;;;-0.40;96.10;;;;;;5076740;28;20036;-80
2022/12/12 06:18:35;;;;;;;29.63;15.60;;;-0.50;96.20;;;;;;5094114;28;20456;-80
2022/12/12 06:21:07;;;;;;;34.77;16.10;;;-0.50;96.30;;;;;;5093457;28;20527;-80
2022/12/12 06:23:38;;;;;;;35.33;14.97;;;-0.50;96.30;;;;;;5077533;28;20024;-79
2022/12/12 06:26:04;;;;;;;30.97;14.07;;;-0.50;96.60;;;;;;5093571;28;20020;-79
2022/12/12 06:28:30;;;;;;;31.93;15.27;;;-0.50;96.40;;;;;;5093207;28;20016;-79
2022/12/12 06:30:56;;;;;;;37.57;16.90;;;-0.50;96.50;;;;;;5092707;28;20065;-79
2022/12/12 06:33:21;;;;;;;37.77;16.20;;;-0.70;96.50;;;;;;5092093;28;20032;-80
2022/12/12 06:36:07;;;;;;;31.87;15.23;;;-0.60;96.60;;;;;;5091908;28;20036;-79
2022/12/12 06:38:34;;;;;;;35.20;16.40;;;-0.60;96.60;;;;;;5077413;28;20028;-79
2022/12/12 06:41:05;;;;;;;31.93;14.57;;;-0.60;96.70;;;;;;5094493;28;20278;-79
2022/12/12 06:43:31;;;;;;;30.30;14.60;;;-0.60;96.70;;;;;;5093453;28;20392;-79
2022/12/12 06:46:04;;;;;;;32.00;15.33;;;-0.70;96.70;;;;;;5092956;28;20185;-79
2022/12/12 06:48:31;;;;;;;33.75;14.48;;;-0.70;96.70;;;;;;5092326;28;20066;-79
2022/12/12 06:50:58;;;;;;;35.53;15.50;;;-0.70;96.80;;;;;;5092310;28;20115;-79
2022/12/12 06:53:24;;;;;;;34.27;14.97;;;-0.80;96.80;;;;;;5093101;28;20085;-79
2022/12/12 06:55:49;;;;;;;32.03;15.23;;;-0.70;96.90;;;;;;5090908;28;20028;-78
2022/12/12 06:58:15;;;;;;;32.50;15.13;;;-0.80;96.90;;;;;;5073811;28;20031;-79
2022/12/12 07:00:40;;;;;;;37.00;16.17;;;-0.80;97.00;;;;;;5074974;28;20092;-79
2022/12/12 07:03:06;;;;;;;38.43;17.10;;;-0.80;97.00;;;;;;5075818;28;20123;-79
2022/12/12 07:05:33;;;;;;;33.10;14.63;;;-0.80;97.10;;;;;;5094081;28;20071;-79
2022/12/12 07:08:01;;;;;;;33.90;14.67;;;-0.80;97.10;;;;;;5075516;28;20034;-80
2022/12/12 07:10:29;;;;;;;36.30;16.00;;;-0.90;97.10;;;;;;5093030;28;20758;-80
2022/12/12 07:12:55;;;;;;;42.63;17.00;;;-0.90;97.20;;;;;;5093821;28;20383;-80
2022/12/12 07:15:21;;;;;;;35.97;16.50;;;-0.90;97.30;;;;;;5091122;28;20031;-79
2022/12/12 07:17:47;;;;;;;37.77;17.07;;;-0.80;97.40;;;;;;5092772;28;20028;-80
2022/12/12 07:20:12;;;;;;;38.33;15.80;;;-1.00;97.40;;;;;;5074078;28;20403;-81
2022/12/12 07:22:38;;;;;;;33.10;16.63;;;-0.90;97.50;;;;;;5075808;28;20036;-80
2022/12/12 07:25:06;;;;;;;37.20;16.10;;;-0.90;97.60;;;;;;5059262;28;20046;-80
2022/12/12 07:27:32;;;;;;;35.27;16.50;;;-0.90;97.70;;;;;;5092060;28;20085;-79
2022/12/12 07:29:57;;;;;;;34.13;16.97;;;-0.90;97.80;;;;;;5075628;28;20036;-79
2022/12/12 07:32:23;;;;;;;34.60;16.40;;;-0.90;97.80;;;;;;5092605;28;20109;-79
2022/12/12 07:34:49;;;;;;;33.03;14.77;;;-0.90;97.90;;;;;;5092628;28;20044;-79
2022/12/12 07:37:14;;;;;;;36.33;16.90;;;-0.90;97.90;;;;;;5092724;28;20028;-80
2022/12/12 07:39:40;;;;;;;37.87;15.30;;;-0.90;97.90;;;;;;5109138;28;20032;-79
2022/12/12 07:42:05;;;;;;;33.43;16.30;;;-0.80;98.00;;;;;;5092883;28;20488;-78
2022/12/12 07:44:31;;;;;;;35.13;16.00;;;-0.80;98.00;;;;;;5075784;28;20059;-79
2022/12/12 07:46:58;;;;;;;36.80;15.87;;;-0.80;97.90;;;;;;5092644;28;20036;-79
2022/12/12 07:49:23;;;;;;;38.80;17.27;;;-0.90;98.00;;;;;;5092764;28;20134;-79
2022/12/12 07:51:49;;;;;;;30.57;14.67;;;-0.90;98.10;;;;;;5092331;28;20500;-79
2022/12/12 07:54:16;;;;;;;39.40;17.40;;;-0.90;98.10;;;;;;5109417;28;20370;-80
2022/12/12 07:56:41;;;;;;;36.77;16.37;;;-0.80;98.10;;;;;;5093928;28;20050;-80
2022/12/12 07:59:07;;;;;;;38.10;16.90;;;-0.90;98.20;;;;;;5074953;28;20028;-79
2022/12/12 08:01:32;;;;;;;36.37;17.03;;;-0.80;98.30;;;;;;5074937;28;20484;-79
2022/12/12 08:03:58;;;;;;;40.33;17.27;;;-0.80;98.60;;;;;;5092410;28;20034;-79
2022/12/12 08:06:24;;;;;;;38.00;16.87;;;-0.80;98.40;;;;;;5076046;28;20063;-79
2022/12/12 08:08:51;;;;;;;35.10;16.30;;;-0.80;98.40;;;;;;5058921;28;20042;-79
2022/12/12 08:11:19;;;;;;;36.43;16.73;;;-0.80;98.50;;;;;;5092170;28;20074;-79
2022/12/12 08:13:45;;;;;;;37.30;17.33;;;-0.80;98.60;;;;;;5091892;28;20023;-79
2022/12/12 08:16:25;;;;;;;38.43;17.20;;;-0.80;98.60;;;;;;5093022;28;20038;-79
2022/12/12 08:18:56;;;;;;;38.40;15.90;;;-0.80;98.70;;;;;;5091977;28;20101;-79
2022/12/12 08:21:22;;;;;;;39.23;16.73;;;-0.80;98.70;;;;;;5092207;28;20039;-79
2022/12/12 08:23:48;;;;;;;39.27;17.33;;;-0.70;98.80;;;;;;5109437;28;20043;-79
2022/12/12 08:26:16;;;;;;;34.90;16.67;;;-0.80;98.80;;;;;;5109459;28;20028;-79
2022/12/12 08:28:49;;;;;;;38.97;18.47;;;-0.70;98.90;;;;;;5091141;28;20020;-79
2022/12/12 08:31:16;;;;;;;35.38;17.50;;;-0.70;98.90;;;;;;5092659;28;20028;-79
2022/12/12 08:33:42;;;;;;;34.03;16.93;;;-0.70;98.90;;;;;;5092532;28;20080;-79
2022/12/12 08:36:35;;;;;;;39.93;17.63;;;-0.70;98.90;;;;;;5092188;28;20123;-79
2022/12/12 08:39:08;;;;;;;34.60;16.77;;;-0.70;99.00;;;;;;5091258;28;20400;-79
2022/12/12 08:41:36;;;;;;;36.08;18.38;;;-0.60;99.10;;;;;;5092003;28;20065;-80
2022/12/12 08:44:02;;;;;;;35.67;17.33;;;-0.60;99.20;;;;;;5091917;28;20173;-80
2022/12/12 08:46:28;;;;;;;38.67;17.87;;;-0.60;99.20;;;;;;5075072;28;20074;-79
2022/12/12 08:48:53;;;;;;;39.57;17.00;;;-0.50;99.20;;;;;;5092428;28;20016;-79
2022/12/12 08:51:19;;;;;;;35.53;17.43;;;-0.50;99.30;;;;;;5108960;28;20031;-79
2022/12/12 08:53:50;;;;;;;39.40;18.10;;;-0.50;99.30;;;;;;5091464;28;20048;-79
2022/12/12 08:56:17;;;;;;;40.60;17.97;;;-0.50;99.30;;;;;;5093385;28;20645;-79
2022/12/12 08:58:42;;;;;;;37.03;17.80;;;-0.40;99.40;;;;;;5091408;28;20026;-79
2022/12/12 09:01:10;;;;;;;36.87;16.67;;;-0.40;99.40;;;;;;5091957;28;20118;-79
2022/12/12 09:03:35;;;;;;;38.03;18.47;;;-0.30;99.40;;;;;;5093068;28;20073;-79
2022/12/12 09:06:01;;;;;;;35.47;16.60;;;-0.40;99.40;;;;;;5075071;28;20020;-79
2022/12/12 09:08:27;;;;;;;41.00;17.93;;;-0.40;99.40;;;;;;5093202;28;20428;-79
2022/12/12 09:10:52;;;;;;;38.77;18.50;;;-0.30;99.50;;;;;;5074954;28;20054;-79
2022/12/12 09:13:19;;;;;;;41.43;18.47;;;-0.30;99.70;;;;;;5092809;28;20027;-79
2022/12/12 09:15:49;;;;;;;38.90;17.50;;;-0.30;99.50;;;;;;5091367;28;20028;-79
2022/12/12 09:18:15;;;;;;;42.57;18.43;;;-0.30;99.60;;;;;;5108799;28;20020;-79
2022/12/12 09:20:41;;;;;;;48.10;19.87;;;-0.20;99.80;;;;;;5092966;28;20036;-79
2022/12/12 09:23:06;;;;;;;42.70;19.27;;;-0.20;99.90;;;;;;5074787;28;20024;-79
2022/12/12 09:25:32;;;;;;;44.53;19.73;;;-0.10;99.90;;;;;;5074807;28;20093;-80
2022/12/12 09:27:57;;;;;;;42.70;19.33;;;0.00;99.90;;;;;;5091992;28;20116;-79
2022/12/12 09:30:24;;;;;;;43.37;20.23;;;0.30;99.90;;;;;;5092708;28;20111;-79
2022/12/12 09:32:50;;;;;;;40.20;17.93;;;0.60;99.90;;;;;;5093040;28;20021;-79
2022/12/12 09:35:15;;;;;;;33.47;17.50;;;0.90;99.90;;;;;;5074765;28;20028;-79
2022/12/12 09:37:41;;;;;;;33.40;16.43;;;1.20;99.90;;;;;;5075047;28;20028;-79
2022/12/12 09:40:09;;;;;;;29.17;15.13;;;1.60;99.90;;;;;;5091562;28;20129;-79
2022/12/12 09:42:45;;;;;;;29.87;14.10;;;2.20;99.90;;;;;;5075246;28;20031;-80
2022/12/12 09:45:11;;;;;;;28.80;14.30;;;2.70;99.90;;;;;;5096191;28;20559;-79
2022/12/12 09:47:36;;;;;;;24.50;14.20;;;3.20;99.90;;;;;;5095329;28;20056;-80
2022/12/12 09:50:22;;;;;;;27.37;13.73;;;3.70;99.90;;;;;;5096244;28;20020;-78
2022/12/12 09:52:48;;;;;;;27.60;14.47;;;4.30;99.90;;;;;;5095832;28;20036;-77
2022/12/12 09:55:19;;;;;;;31.87;15.40;;;4.70;99.90;;;;;;5077763;28;20048;-78
2022/12/12 09:57:56;;;;;;;26.00;14.57;;;5.00;99.90;;;;;;5096568;28;20089;-78
2022/12/12 10:00:22;;;;;;;24.70;13.93;;;5.60;99.90;;;;;;5095925;28;20024;-78
2022/12/12 10:03:24;;;;;;;26.50;14.10;;;6.00;99.90;;;;;;5095002;28;20081;-78
2022/12/12 10:06:00;;;;;;;25.73;14.27;;;6.50;99.90;;;;;;5094702;28;20103;-79
2022/12/12 10:08:51;;;;;;;25.02;13.75;;;7.00;99.90;;;;;;5094594;28;20074;-79
2022/12/12 10:11:50;;;;;;;23.35;13.25;;;7.30;99.80;;;;;;5091400;28;20031;-79
2022/12/12 10:14:23;;;;;;;21.98;12.55;;;7.60;99.10;;;;;;5075740;28;20388;-79
2022/12/12 10:16:50;;;;;;;23.27;13.82;;;8.00;98.60;;;;;;5083583;28;20028;-79
2022/12/12 10:19:22;;;;;;;21.58;12.85;;;8.20;97.50;;;;;;5094357;28;20032;-79
2022/12/12 10:21:51;;;;;;;23.40;12.88;;;8.30;96.40;;;;;;5094441;28;20028;-79
2022/12/12 10:24:38;;;;;;;23.38;13.68;;;8.40;95.60;;;;;;5094193;28;20032;-79
2022/12/12 10:27:09;;;;;;;23.10;13.48;;;8.50;93.60;;;;;;5094379;28;20028;-80
2022/12/12 10:29:37;;;;;;;21.52;12.98;;;8.70;92.20;;;;;;5094116;28;20028;-79
2022/12/12 10:32:41;;;;;;;21.20;13.38;;;8.80;90.60;;;;;;5095622;28;20097;-79
2022/12/12 10:35:28;;;;;;;22.23;13.05;;;8.70;87.30;;;;;;5094227;28;20028;-79
2022/12/12 10:37:54;;;;;;;20.42;12.45;;;8.60;86.10;;;;;;5095534;28;20046;-79
2022/12/12 10:41:09;;;;;;;22.65;13.35;;;8.30;86.40;;;;;;5094118;28;20472;-79
2022/12/12 10:43:53;;;;;;;26.80;13.57;;;8.30;86.10;;;;;;5091864;28;20105;-79
2022/12/12 10:46:51;;;;;;;21.83;11.85;;;8.30;83.60;;;;;;5093740;28;20453;-79
2022/12/12 10:49:21;;;;;;;22.63;11.77;;;8.40;84.30;;;;;;5080328;28;21425;-80
2022/12/12 10:51:49;;;;;;;23.67;13.48;;;8.80;85.20;;;;;;5093402;28;20052;-79
2022/12/12 10:54:18;;;;;;;18.48;10.73;;;9.10;85.10;;;;;;5094302;28;20048;-80
2022/12/12 10:57:02;;;;;;;18.25;11.50;;;9.60;84.60;;;;;;5094046;28;20521;-80
2022/12/12 10:59:28;;;;;;;;;;;10.10;83.50;;;;;;5094055;28;20091;-80
2022/12/12 11:01:58;;;;;;;19.77;11.10;;;10.30;83.80;;;;;;5094755;28;20375;-80
2022/12/12 11:04:27;;;;;;;19.20;9.82;;;10.50;84.00;;;;;;5094139;28;20028;-79
2022/12/12 11:06:54;;;;;;;20.17;11.50;;;10.60;82.70;;;;;;5110511;28;20085;-80
2022/12/12 11:09:22;;;;;;;17.83;10.93;;;10.70;78.40;;;;;;5094662;28;20054;-80
2022/12/12 11:12:08;;;;;;;22.35;12.57;;;10.70;75.00;;;;;;5092577;28;20051;-80
2022/12/12 11:14:49;;;;;;;19.25;11.75;;;10.60;72.60;;;;;;5078428;28;20036;-80
2022/12/12 11:17:26;;;;;;;19.42;10.90;;;10.70;71.80;;;;;;5094557;28;20404;-79
2022/12/12 11:19:55;;;;;;;21.60;11.63;;;10.60;72.10;;;;;;5093341;28;20540;-80
2022/12/12 11:22:21;;;;;;;19.67;11.82;;;10.60;71.10;;;;;;5094575;28;20069;-79
2022/12/12 11:24:48;;;;;;;24.58;12.65;;;10.60;69.00;;;;;;5094448;28;20028;-79
2022/12/12 11:27:21;;;;;;;21.23;12.18;;;10.50;66.40;;;;;;5093490;28;20534;-79
2022/12/12 11:29:52;;;;;;;22.02;12.13;;;10.40;67.40;;;;;;5094050;28;20020;-80
2022/12/12 11:32:21;;;;;;;22.95;12.80;;;10.20;67.20;;;;;;5094416;28;20047;-80
2022/12/12 11:34:54;;;;;;;22.55;12.57;;;10.00;66.50;;;;;;5093072;28;20027;-80
2022/12/12 11:37:23;;;;;;;20.00;11.77;;;9.80;65.40;;;;;;5094449;28;20043;-79
2022/12/12 11:39:51;;;;;;;24.65;12.27;;;9.70;66.50;;;;;;5092994;28;20024;-79
2022/12/12 11:42:28;;;;;;;21.93;12.47;;;9.60;65.50;;;;;;5092443;28;20119;-79
2022/12/12 11:45:09;;;;;;;23.27;13.05;;;9.40;65.60;;;;;;5094070;28;20376;-79
2022/12/12 11:47:40;;;;;;;24.33;13.00;;;9.40;65.50;;;;;;5094039;28;20028;-83
2022/12/12 11:50:17;;;;;;;22.02;11.57;;;9.70;66.20;;;;;;5092439;28;20038;-82
2022/12/12 11:52:43;;;;;;;20.95;11.93;;;10.10;66.30;;;;;;5092833;28;20048;-83
2022/12/12 11:55:14;;;;;;;19.65;10.80;;;10.40;66.80;;;;;;5075955;28;20028;-84
2022/12/12 11:57:56;;;;;;;19.63;10.68;;;10.70;66.30;;;;;;5092817;28;20024;-83
2022/12/12 12:00:23;;;;;;;19.55;10.60;;;11.00;65.60;;;;;;5092608;28;20020;-84
2022/12/12 12:03:14;;;;;;;19.58;10.55;;;11.30;65.20;;;;;;5075608;28;20020;-84
2022/12/12 12:06:06;;;;;;;18.50;10.88;;;11.60;65.10;;;;;;5092400;28;20028;-84
2022/12/12 12:08:52;;;;;;;18.92;10.38;;;11.90;66.10;;;;;;5091826;28;20030;-84
2022/12/12 12:11:20;;;;;;;16.20;10.50;;;12.50;65.00;;;;;;5093978;28;20112;-84
2022/12/12 12:14:21;;;;;;;19.98;11.70;;;13.00;64.30;;;;;;5094082;28;20090;-84
2022/12/12 12:17:17;;;;;;;17.48;10.25;;;13.50;63.40;;;;;;5092037;28;20054;-84
2022/12/12 12:20:08;;;;;;;16.13;9.57;;;13.90;61.40;;;;;;5092093;28;20058;-80
2022/12/12 12:23:02;;;;;;;15.23;9.60;;;14.40;60.70;;;;;;5107704;28;20055;-80
2022/12/12 12:25:28;;;;;;;16.73;10.10;;;14.80;59.70;;;;;;5109340;28;20035;-85
2022/12/12 12:28:33;;;;;;;16.05;9.82;;;15.10;59.60;;;;;;5092357;28;20020;-85
2022/12/12 12:31:27;;;;;;;14.38;9.23;;;15.50;57.30;;;;;;5109458;28;20016;-85
2022/12/12 12:34:03;;;;;;;17.73;10.05;;;15.70;56.40;;;;;;5092522;28;20020;-84
2022/12/12 12:36:59;;;;;;;16.05;10.27;;;16.00;54.50;;;;;;5092433;28;20047;-85
2022/12/12 12:39:46;;;;;;;16.38;9.68;;;16.20;53.10;;;;;;5092061;28;20085;-84
2022/12/12 12:42:26;;;;;;;13.43;8.07;;;16.40;52.40;;;;;;5092346;28;20024;-84
2022/12/12 12:45:07;;;;;;;14.02;8.98;;;16.50;52.50;;;;;;5109274;28;20031;-84
2022/12/12 12:47:47;;;;;;;15.55;9.40;;;16.60;52.30;;;;;;5109307;28;20103;-85
2022/12/12 12:50:31;;;;;;;13.43;8.60;;;16.70;51.30;;;;;;5109291;28;20036;-84
2022/12/12 12:53:04;;;;;;;14.48;8.50;;;16.80;50.70;;;;;;5094037;28;20051;-84
2022/12/12 12:55:38;;;;;;;14.82;8.68;;;17.00;50.90;;;;;;5109746;28;20020;-84
2022/12/12 12:58:12;;;;;;;14.48;8.52;;;17.20;50.40;;;;;;5109751;28;20016;-84
2022/12/12 13:00:38;;;;;;;11.82;7.68;;;17.50;50.20;;;;;;5109330;28;20021;-84
2022/12/12 13:03:11;;;;;;;13.38;8.63;;;17.70;49.30;;;;;;5092194;28;20028;-84
2022/12/12 13:05:49;;;;;;;15.02;9.93;;;17.90;47.20;;;;;;5109255;28;20044;-84
2022/12/12 13:08:42;;;;;;;14.50;8.80;;;18.00;46.60;;;;;;5109224;28;20383;-84
2022/12/12 13:11:34;;;;;;;14.10;7.95;;;18.10;46.40;;;;;;5091878;28;20028;-84
2022/12/12 13:14:25;;;;;;;15.80;7.78;;;18.20;46.20;;;;;;5108926;28;20027;-85